createdAt,value
2022-12-29T00:00:18.794Z,74
2022-12-29T00:01:25.987Z,74
2022-12-29T00:02:33.018Z,74
2022-12-29T00:03:40.224Z,74
2022-12-29T00:04:47.265Z,73
2022-12-29T00:05:54.446Z,74
2022-12-29T00:07:01.896Z,74
2022-12-29T00:08:09.225Z,74
2022-12-29T00:09:16.125Z,74
2022-12-29T00:10:22.857Z,74
2022-12-29T00:11:30.191Z,74
2022-12-29T00:12:37.117Z,74
2022-12-29T00:13:49.463Z,74
2022-12-29T00:15:01.736Z,74
2022-12-29T00:16:13.791Z,74
2022-12-29T00:17:20.862Z,74
2022-12-29T00:18:28.036Z,74
2022-12-29T00:19:35.181Z,74
2022-12-29T00:20:47.521Z,74
2022-12-29T00:21:59.773Z,74
2022-12-29T00:23:14.322Z,74
2022-12-29T00:24:26.578Z,74
2022-12-29T00:25:38.953Z,74
2022-12-29T00:26:51.161Z,74
2022-12-29T00:28:06.912Z,73
2022-12-29T00:29:18.993Z,73
2022-12-29T00:30:31.205Z,73
2022-12-29T00:31:43.608Z,73
2022-12-29T00:32:55.858Z,73
2022-12-29T00:34:15.949Z,73
2022-12-29T00:35:28.176Z,73
2022-12-29T00:36:40.677Z,73
2022-12-29T00:37:47.660Z,73
2022-12-29T00:39:00.047Z,72
2022-12-29T00:40:12.446Z,72
2022-12-29T00:41:24.667Z,72
2022-12-29T00:42:36.928Z,72
2022-12-29T00:43:49.253Z,72
2022-12-29T00:45:01.640Z,72
2022-12-29T00:46:11.783Z,72
2022-12-29T00:47:16.147Z,72
2022-12-29T00:48:23.270Z,72
2022-12-29T00:49:35.524Z,72
2022-12-29T00:50:42.728Z,71
2022-12-29T00:51:49.902Z,71
2022-12-29T00:52:57.064Z,71
2022-12-29T00:54:04.366Z,71
2022-12-29T00:55:11.213Z,71
2022-12-29T00:56:18.282Z,70
2022-12-29T00:57:25.492Z,70
2022-12-29T00:58:32.585Z,70
2022-12-29T00:59:39.797Z,70
2022-12-29T01:00:47.079Z,70
2022-12-29T01:01:54.329Z,70
2022-12-29T01:03:01.467Z,71
2022-12-29T01:04:08.628Z,71
2022-12-29T01:05:15.761Z,70
2022-12-29T01:06:22.915Z,71
2022-12-29T01:07:30.107Z,70
2022-12-29T01:08:37.433Z,71
2022-12-29T01:09:44.408Z,71
2022-12-29T01:10:56.692Z,71
2022-12-29T01:12:12.260Z,71
2022-12-29T01:13:19.634Z,71
2022-12-29T01:14:26.576Z,70
2022-12-29T01:15:33.762Z,71
2022-12-29T01:16:40.962Z,70
2022-12-29T01:17:48.063Z,70
2022-12-29T01:18:55.232Z,70
2022-12-29T01:20:02.360Z,70
2022-12-29T01:21:10.069Z,70
2022-12-29T01:22:16.955Z,70
2022-12-29T01:23:24.112Z,70
2022-12-29T01:24:32.053Z,70
2022-12-29T01:25:38.904Z,70
2022-12-29T01:26:46.120Z,70
2022-12-29T01:27:53.388Z,70
2022-12-29T01:29:00.508Z,70
2022-12-29T01:30:07.382Z,70
2022-12-29T01:31:14.589Z,70
2022-12-29T01:32:21.632Z,70
2022-12-29T01:33:28.836Z,70
2022-12-29T01:34:36.096Z,70
2022-12-29T01:35:43.156Z,70
2022-12-29T01:36:50.276Z,70
2022-12-29T01:37:57.422Z,70
2022-12-29T01:39:04.588Z,70
2022-12-29T01:40:11.549Z,70
2022-12-29T01:41:18.655Z,70
2022-12-29T01:42:25.763Z,70
2022-12-29T01:43:32.480Z,70
2022-12-29T01:44:49.847Z,70
2022-12-29T01:46:00.173Z,70
2022-12-29T01:47:07.521Z,71
2022-12-29T01:48:14.759Z,70
2022-12-29T01:49:21.692Z,71
2022-12-29T01:50:28.872Z,70
2022-12-29T01:51:43.748Z,70
2022-12-29T01:52:56.109Z,71
2022-12-29T01:54:08.972Z,71
2022-12-29T01:55:16.297Z,71
2022-12-29T01:56:23.353Z,70
2022-12-29T01:57:30.506Z,70
2022-12-29T01:58:37.633Z,71
2022-12-29T01:59:44.804Z,71
2022-12-29T02:00:54.600Z,71
2022-12-29T02:02:01.811Z,71
2022-12-29T02:03:08.829Z,71
2022-12-29T02:04:15.921Z,71
2022-12-29T02:05:22.935Z,71
2022-12-29T02:06:38.219Z,71
2022-12-29T02:07:47.978Z,71
2022-12-29T02:08:55.177Z,71
2022-12-29T02:10:02.359Z,71
2022-12-29T02:11:09.630Z,71
2022-12-29T02:12:16.812Z,71
2022-12-29T02:13:23.964Z,71
2022-12-29T02:14:31.141Z,70
2022-12-29T02:15:38.329Z,70
2022-12-29T02:16:51.173Z,70
2022-12-29T02:18:08.789Z,70
2022-12-29T02:19:24.067Z,70
2022-12-29T02:20:41.366Z,70
2022-12-29T02:21:58.746Z,70
2022-12-29T02:23:13.856Z,70
2022-12-29T02:24:28.685Z,70
2022-12-29T02:25:46.039Z,70
2022-12-29T02:26:58.284Z,70
2022-12-29T02:28:13.417Z,70
2022-12-29T02:29:30.938Z,70
2022-12-29T02:30:43.139Z,70
2022-12-29T02:31:50.174Z,70
2022-12-29T02:32:57.291Z,70
2022-12-29T02:34:04.526Z,70
2022-12-29T02:35:11.344Z,70
2022-12-29T02:36:18.479Z,70
2022-12-29T02:37:28.216Z,70
2022-12-29T02:38:40.523Z,70
2022-12-29T02:39:57.907Z,70
2022-12-29T02:41:10.370Z,70
2022-12-29T02:42:25.147Z,70
2022-12-29T02:43:34.908Z,69
2022-12-29T02:44:47.211Z,69
2022-12-29T02:45:59.657Z,69
2022-12-29T02:47:17.066Z,69
2022-12-29T02:48:26.818Z,69
2022-12-29T02:49:36.467Z,69
2022-12-29T02:50:43.692Z,69
2022-12-29T02:51:55.901Z,69
2022-12-29T02:53:03.138Z,69
2022-12-29T02:54:09.931Z,69
2022-12-29T02:55:22.220Z,69
2022-12-29T02:56:29.396Z,69
2022-12-29T02:57:36.779Z,69
2022-12-29T02:58:43.725Z,68
2022-12-29T02:59:50.917Z,68
2022-12-29T03:01:04.219Z,69
2022-12-29T03:02:16.310Z,69
2022-12-29T03:03:33.629Z,69
2022-12-29T03:04:50.977Z,69
2022-12-29T03:06:05.844Z,69
2022-12-29T03:07:22.866Z,69
2022-12-29T03:08:35.161Z,69
2022-12-29T03:09:47.549Z,69
2022-12-29T03:10:54.566Z,69
2022-12-29T03:12:04.260Z,70
2022-12-29T03:13:21.857Z,70
2022-12-29T03:14:44.441Z,69
2022-12-29T03:15:56.658Z,70
2022-12-29T03:17:09.696Z,70
2022-12-29T03:18:16.865Z,69
2022-12-29T03:19:26.421Z,69
2022-12-29T03:20:43.982Z,69
2022-12-29T03:21:53.703Z,70
2022-12-29T03:23:05.886Z,70
2022-12-29T03:24:12.837Z,69
2022-12-29T03:25:19.876Z,70
2022-12-29T03:26:27.028Z,70
2022-12-29T03:27:34.138Z,70
2022-12-29T03:28:46.455Z,70
2022-12-29T03:29:53.579Z,70
2022-12-29T03:31:00.869Z,70
2022-12-29T03:32:08.117Z,70
2022-12-29T03:33:15.434Z,70
2022-12-29T03:34:22.385Z,70
2022-12-29T03:35:29.558Z,70
2022-12-29T03:36:36.681Z,71
2022-12-29T03:37:43.917Z,71
2022-12-29T03:39:01.503Z,71
2022-12-29T03:40:08.544Z,71
2022-12-29T03:41:15.707Z,70
2022-12-29T03:42:22.894Z,71
2022-12-29T03:43:30.074Z,71
2022-12-29T03:44:37.385Z,71
2022-12-29T03:45:44.503Z,71
2022-12-29T03:46:51.539Z,71
2022-12-29T03:47:58.701Z,71
2022-12-29T03:49:05.850Z,71
2022-12-29T03:50:12.680Z,71
2022-12-29T03:51:19.937Z,71
2022-12-29T03:52:27.039Z,71
2022-12-29T03:53:34.180Z,71
2022-12-29T03:54:44.405Z,71
2022-12-29T03:55:51.507Z,72
2022-12-29T03:56:58.704Z,72
2022-12-29T03:58:05.796Z,71
2022-12-29T03:59:12.906Z,71
2022-12-29T04:00:19.906Z,72
2022-12-29T04:01:27.201Z,72
2022-12-29T04:02:34.346Z,72
2022-12-29T04:03:41.529Z,72
2022-12-29T04:04:48.533Z,72
2022-12-29T04:05:55.736Z,71
2022-12-29T04:07:02.984Z,72
2022-12-29T04:08:10.255Z,71
2022-12-29T04:09:17.407Z,71
2022-12-29T04:10:24.510Z,71
2022-12-29T04:11:33.327Z,71
2022-12-29T04:12:38.952Z,71
2022-12-29T04:13:46.086Z,71
2022-12-29T04:14:53.278Z,71
2022-12-29T04:16:00.464Z,71
2022-12-29T04:17:07.665Z,72
2022-12-29T04:18:14.856Z,71
2022-12-29T04:19:22.187Z,71
2022-12-29T04:20:29.130Z,72
2022-12-29T04:21:41.567Z,72
2022-12-29T04:22:48.638Z,72
2022-12-29T04:23:55.782Z,72
2022-12-29T04:25:02.941Z,72
2022-12-29T04:26:10.432Z,72
2022-12-29T04:27:17.440Z,72
2022-12-29T04:28:24.617Z,72
2022-12-29T04:29:31.779Z,72
2022-12-29T04:30:38.839Z,72
2022-12-29T04:31:46.070Z,72
2022-12-29T04:32:53.066Z,72
2022-12-29T04:34:00.353Z,72
2022-12-29T04:35:07.225Z,72
2022-12-29T04:36:14.325Z,72
2022-12-29T04:37:21.510Z,72
2022-12-29T04:38:28.559Z,72
2022-12-29T04:39:35.745Z,71
2022-12-29T04:40:43.009Z,71
2022-12-29T04:41:50.142Z,72
2022-12-29T04:42:57.294Z,72
2022-12-29T04:44:04.430Z,71
2022-12-29T04:45:11.229Z,72
2022-12-29T04:46:18.464Z,71
2022-12-29T04:47:25.705Z,71
2022-12-29T04:48:32.830Z,71
2022-12-29T04:49:39.938Z,71
2022-12-29T04:50:47.100Z,71
2022-12-29T04:51:54.310Z,71
2022-12-29T04:53:01.543Z,71
2022-12-29T04:54:08.330Z,71
2022-12-29T04:55:15.704Z,71
2022-12-29T04:56:22.622Z,71
2022-12-29T04:57:29.789Z,71
2022-12-29T04:58:36.943Z,71
2022-12-29T04:59:44.096Z,71
2022-12-29T05:00:51.205Z,71
2022-12-29T05:01:58.671Z,71
2022-12-29T05:03:05.765Z,71
2022-12-29T05:04:12.431Z,71
2022-12-29T05:05:19.619Z,71
2022-12-29T05:06:26.779Z,71
2022-12-29T05:07:33.932Z,71
2022-12-29T05:08:41.046Z,71
2022-12-29T05:09:48.218Z,71
2022-12-29T05:10:55.389Z,71
2022-12-29T05:12:02.481Z,71
2022-12-29T05:13:09.687Z,71
2022-12-29T05:14:16.566Z,71
2022-12-29T05:15:23.689Z,71
2022-12-29T05:16:30.936Z,71
2022-12-29T05:18:02.915Z,71
2022-12-29T05:19:09.959Z,70
2022-12-29T05:20:16.970Z,71
2022-12-29T05:21:24.087Z,71
2022-12-29T05:22:31.246Z,71
2022-12-29T05:23:37.887Z,71
2022-12-29T05:24:44.977Z,71
2022-12-29T05:25:51.671Z,72
2022-12-29T05:26:58.864Z,72
2022-12-29T05:28:05.961Z,71
2022-12-29T05:29:12.808Z,71
2022-12-29T05:30:19.483Z,72
2022-12-29T05:31:26.787Z,71
2022-12-29T05:32:33.745Z,72
2022-12-29T05:33:40.441Z,71
2022-12-29T05:34:47.562Z,72
2022-12-29T05:35:54.232Z,72
2022-12-29T05:37:01.511Z,72
2022-12-29T05:38:08.605Z,72
2022-12-29T05:39:15.453Z,72
2022-12-29T05:40:22.586Z,72
2022-12-29T05:41:29.690Z,72
2022-12-29T05:42:36.382Z,72
2022-12-29T05:43:43.680Z,71
2022-12-29T05:44:50.242Z,71
2022-12-29T05:45:57.516Z,71
2022-12-29T05:47:04.590Z,71
2022-12-29T05:48:11.459Z,71
2022-12-29T05:49:18.783Z,71
2022-12-29T05:50:25.828Z,71
2022-12-29T05:51:33.194Z,71
2022-12-29T05:52:40.027Z,71
2022-12-29T05:53:47.154Z,71
2022-12-29T05:54:54.251Z,71
2022-12-29T05:56:01.462Z,71
2022-12-29T05:57:08.449Z,71
2022-12-29T05:58:15.525Z,71
2022-12-29T05:59:22.727Z,70
2022-12-29T06:00:29.839Z,70
2022-12-29T06:01:37.168Z,71
2022-12-29T06:02:44.268Z,71
2022-12-29T06:03:51.370Z,71
2022-12-29T06:04:57.955Z,70
2022-12-29T06:06:05.042Z,70
2022-12-29T06:07:11.960Z,70
2022-12-29T06:08:19.188Z,70
2022-12-29T06:09:26.251Z,70
2022-12-29T06:10:33.384Z,70
2022-12-29T06:11:40.563Z,70
2022-12-29T06:12:47.719Z,71
2022-12-29T06:13:54.371Z,70
2022-12-29T06:15:01.589Z,70
2022-12-29T06:16:08.991Z,71
2022-12-29T06:17:15.986Z,71
2022-12-29T06:18:23.136Z,71
2022-12-29T06:19:30.297Z,71
2022-12-29T06:20:37.485Z,72
2022-12-29T06:21:44.691Z,71
2022-12-29T06:22:51.817Z,72
2022-12-29T06:23:58.897Z,72
2022-12-29T06:25:06.055Z,72
2022-12-29T06:26:12.957Z,72
2022-12-29T06:27:20.088Z,72
2022-12-29T06:28:27.405Z,72
2022-12-29T06:29:34.427Z,72
2022-12-29T06:30:41.619Z,72
2022-12-29T06:31:48.777Z,72
2022-12-29T06:32:55.923Z,72
2022-12-29T06:34:08.050Z,72
2022-12-29T06:35:09.973Z,72
2022-12-29T06:36:17.027Z,72
2022-12-29T06:37:24.246Z,72
2022-12-29T06:38:31.403Z,72
2022-12-29T06:39:38.129Z,72
2022-12-29T06:40:45.261Z,72
2022-12-29T06:41:51.887Z,72
2022-12-29T06:42:59.004Z,72
2022-12-29T06:44:06.162Z,73
2022-12-29T06:45:13.065Z,73
2022-12-29T06:46:19.886Z,73
2022-12-29T06:47:26.958Z,73
2022-12-29T06:48:34.123Z,72
2022-12-29T06:49:41.219Z,73
2022-12-29T06:50:47.869Z,72
2022-12-29T06:51:54.573Z,72
2022-12-29T06:53:01.919Z,73
2022-12-29T06:54:09.263Z,73
2022-12-29T06:55:16.230Z,73
2022-12-29T06:56:22.898Z,73
2022-12-29T06:57:29.836Z,73
2022-12-29T06:58:36.820Z,73
2022-12-29T06:59:43.839Z,72
2022-12-29T07:00:50.566Z,73
2022-12-29T07:01:57.810Z,72
2022-12-29T07:03:05.052Z,72
2022-12-29T07:04:11.727Z,72
2022-12-29T07:05:18.903Z,73
2022-12-29T07:06:26.040Z,72
2022-12-29T07:07:32.663Z,72
2022-12-29T07:08:39.873Z,72
2022-12-29T07:09:47.020Z,72
2022-12-29T07:10:54.352Z,72
2022-12-29T07:12:01.366Z,72
2022-12-29T07:13:08.221Z,73
2022-12-29T07:14:14.832Z,72
2022-12-29T07:15:22.068Z,72
2022-12-29T07:16:29.252Z,72
2022-12-29T07:17:36.636Z,72
2022-12-29T07:18:43.571Z,72
2022-12-29T07:19:50.681Z,72
2022-12-29T07:20:57.834Z,72
2022-12-29T07:22:04.974Z,72
2022-12-29T07:23:11.881Z,72
2022-12-29T07:24:19.143Z,72
2022-12-29T07:25:26.182Z,73
2022-12-29T07:26:36.390Z,73
2022-12-29T07:27:40.521Z,73
2022-12-29T07:28:47.181Z,73
2022-12-29T07:29:54.400Z,73
2022-12-29T07:31:01.618Z,73
2022-12-29T07:32:08.391Z,73
2022-12-29T07:33:15.440Z,73
2022-12-29T07:34:22.551Z,73
2022-12-29T07:35:29.266Z,73
2022-12-29T07:36:35.919Z,73
2022-12-29T07:37:43.047Z,73
2022-12-29T07:38:50.194Z,73
2022-12-29T07:39:57.350Z,73
2022-12-29T07:41:04.555Z,72
2022-12-29T07:42:11.341Z,72
2022-12-29T07:43:18.509Z,72
2022-12-29T07:44:25.658Z,73
2022-12-29T07:45:32.904Z,73
2022-12-29T07:46:53.659Z,73
2022-12-29T07:47:46.797Z,72
2022-12-29T07:48:53.874Z,72
2022-12-29T07:50:00.930Z,72
2022-12-29T07:51:08.292Z,72
2022-12-29T07:52:14.995Z,72
2022-12-29T07:53:22.158Z,72
2022-12-29T07:54:29.305Z,73
2022-12-29T07:55:36.430Z,73
2022-12-29T07:56:43.121Z,72
2022-12-29T07:57:49.803Z,72
2022-12-29T07:58:56.986Z,72
2022-12-29T08:00:04.166Z,72
2022-12-29T08:01:11.891Z,72
2022-12-29T08:02:18.760Z,73
2022-12-29T08:03:25.789Z,73
2022-12-29T08:04:32.964Z,73
2022-12-29T08:05:40.918Z,73
2022-12-29T08:06:48.850Z,73
2022-12-29T08:07:56.801Z,73
2022-12-29T08:09:11.248Z,73
2022-12-29T08:10:11.154Z,73
2022-12-29T08:11:19.801Z,73
2022-12-29T08:12:27.900Z,73
2022-12-29T08:13:34.919Z,73
2022-12-29T08:14:42.127Z,73
2022-12-29T08:15:50.241Z,73
2022-12-29T08:16:57.621Z,73
2022-12-29T08:18:04.745Z,73
2022-12-29T08:19:11.625Z,73
2022-12-29T08:20:18.806Z,73
2022-12-29T08:21:25.939Z,73
2022-12-29T08:22:33.856Z,73
2022-12-29T08:23:41.815Z,73
2022-12-29T08:24:49.338Z,73
2022-12-29T08:25:57.481Z,73
2022-12-29T08:27:13.297Z,73
2022-12-29T08:28:12.884Z,73
2022-12-29T08:29:19.786Z,73
2022-12-29T08:30:27.812Z,73
2022-12-29T08:31:34.840Z,73
2022-12-29T08:32:41.763Z,73
2022-12-29T08:33:49.777Z,73
2022-12-29T08:34:56.986Z,73
2022-12-29T08:36:06.113Z,73
2022-12-29T08:37:14.785Z,73
2022-12-29T08:38:21.882Z,72
2022-12-29T08:39:28.969Z,72
2022-12-29T08:40:36.386Z,72
2022-12-29T08:41:43.468Z,73
2022-12-29T08:42:50.777Z,72
2022-12-29T08:43:58.936Z,73
2022-12-29T08:45:06.174Z,73
2022-12-29T08:46:13.288Z,72
2022-12-29T08:47:20.393Z,72
2022-12-29T08:48:28.509Z,73
2022-12-29T08:49:36.753Z,73
2022-12-29T08:50:44.837Z,73
2022-12-29T08:51:52.204Z,73
2022-12-29T08:52:59.182Z,73
2022-12-29T08:54:07.584Z,73
2022-12-29T08:55:15.255Z,73
2022-12-29T08:56:23.548Z,73
2022-12-29T08:57:30.999Z,73
2022-12-29T08:58:38.525Z,73
2022-12-29T08:59:45.371Z,73
2022-12-29T09:00:52.705Z,72
2022-12-29T09:02:00.144Z,72
2022-12-29T09:03:07.254Z,73
2022-12-29T09:04:15.913Z,73
2022-12-29T09:05:22.136Z,73
2022-12-29T09:06:29.795Z,73
2022-12-29T09:07:36.595Z,73
2022-12-29T09:08:43.504Z,73
2022-12-29T09:09:51.621Z,73
2022-12-29T09:10:58.755Z,73
2022-12-29T09:12:12.761Z,73
2022-12-29T09:13:20.228Z,73
2022-12-29T09:14:27.232Z,73
2022-12-29T09:15:34.334Z,73
2022-12-29T09:16:41.553Z,72
2022-12-29T09:17:54.022Z,73
2022-12-29T09:19:02.651Z,73
2022-12-29T09:20:09.404Z,73
2022-12-29T09:21:16.734Z,72
2022-12-29T09:22:23.753Z,72
2022-12-29T09:23:30.831Z,72
2022-12-29T09:24:38.453Z,72
2022-12-29T09:25:45.629Z,71
2022-12-29T09:26:52.721Z,71
2022-12-29T09:27:59.893Z,71
2022-12-29T09:29:07.885Z,71
2022-12-29T09:30:15.156Z,71
2022-12-29T09:31:22.613Z,71
2022-12-29T09:32:33.515Z,71
2022-12-29T09:33:36.589Z,71
2022-12-29T09:34:43.512Z,71
2022-12-29T09:35:50.637Z,70
2022-12-29T09:36:57.976Z,70
2022-12-29T09:38:05.286Z,70
2022-12-29T09:39:12.181Z,70
2022-12-29T09:40:20.450Z,70
2022-12-29T09:41:32.406Z,70
2022-12-29T09:42:44.813Z,69
2022-12-29T09:43:57.318Z,69
2022-12-29T09:45:07.855Z,68
2022-12-29T09:46:15.190Z,68
2022-12-29T09:47:30.649Z,68
2022-12-29T09:48:38.457Z,68
2022-12-29T09:49:45.254Z,67
2022-12-29T09:50:57.680Z,67
2022-12-29T09:52:06.569Z,67
2022-12-29T09:53:23.944Z,67
2022-12-29T09:54:37.108Z,68
2022-12-29T09:55:56.196Z,67
2022-12-29T09:57:03.237Z,68
2022-12-29T09:58:13.278Z,67
2022-12-29T09:59:30.573Z,67
2022-12-29T10:00:43.385Z,68
2022-12-29T10:02:00.408Z,68
2022-12-29T10:03:12.341Z,68
2022-12-29T10:04:19.637Z,68
2022-12-29T10:05:26.481Z,68
2022-12-29T10:06:56.392Z,68
2022-12-29T10:07:52.861Z,68
2022-12-29T10:08:59.525Z,68
2022-12-29T10:10:12.553Z,68
2022-12-29T10:11:28.409Z,68
2022-12-29T10:12:41.002Z,68
2022-12-29T10:13:56.079Z,68
2022-12-29T10:15:13.311Z,68
2022-12-29T10:16:24.005Z,68
2022-12-29T10:17:33.076Z,67
2022-12-29T10:18:48.078Z,66
2022-12-29T10:20:05.405Z,67
2022-12-29T10:21:22.565Z,66
2022-12-29T10:22:37.488Z,66
2022-12-29T10:23:55.488Z,65
2022-12-29T10:25:02.276Z,65
2022-12-29T10:26:17.490Z,65
2022-12-29T10:27:24.937Z,65
2022-12-29T10:28:31.999Z,64
2022-12-29T10:29:45.433Z,65
2022-12-29T10:30:52.649Z,64
2022-12-29T10:32:00.269Z,65
2022-12-29T10:33:07.393Z,65
2022-12-29T10:34:14.406Z,64
2022-12-29T10:35:26.697Z,65
2022-12-29T10:36:39.963Z,64
2022-12-29T10:37:47.176Z,64
2022-12-29T10:38:59.284Z,64
2022-12-29T10:40:07.378Z,64
2022-12-29T10:41:22.592Z,65
2022-12-29T10:42:32.701Z,64
2022-12-29T10:43:39.903Z,64
2022-12-29T10:44:50.184Z,64
2022-12-29T10:45:59.948Z,64
2022-12-29T10:47:08.921Z,64
2022-12-29T10:48:18.672Z,64
2022-12-29T10:49:31.362Z,64
2022-12-29T10:50:38.833Z,64
2022-12-29T10:51:46.889Z,64
2022-12-29T10:52:54.790Z,65
2022-12-29T10:54:03.200Z,65
2022-12-29T10:55:10.628Z,65
2022-12-29T10:56:17.566Z,65
2022-12-29T10:57:35.272Z,65
2022-12-29T10:58:49.344Z,66
2022-12-29T10:59:53.617Z,65
2022-12-29T11:01:02.913Z,65
2022-12-29T11:02:10.225Z,65
2022-12-29T11:03:22.286Z,64
2022-12-29T11:04:39.925Z,64
2022-12-29T11:05:54.773Z,65
2022-12-29T11:07:11.949Z,65
2022-12-29T11:08:16.076Z,65
2022-12-29T11:09:41.792Z,65
2022-12-29T11:10:37.961Z,65
2022-12-29T11:11:45.985Z,65
2022-12-29T11:12:54.171Z,65
2022-12-29T11:14:06.647Z,65
2022-12-29T11:15:22.525Z,65
2022-12-29T11:16:30.253Z,64
2022-12-29T11:17:37.464Z,65
2022-12-29T11:18:51.505Z,65
2022-12-29T11:19:58.786Z,64
2022-12-29T11:21:06.773Z,65
2022-12-29T11:22:25.553Z,64
2022-12-29T11:23:33.809Z,65
2022-12-29T11:24:40.990Z,65
2022-12-29T11:25:49.188Z,65
2022-12-29T11:27:06.427Z,65
2022-12-29T11:28:13.803Z,65
2022-12-29T11:29:20.959Z,65
2022-12-29T11:30:27.830Z,65
2022-12-29T11:31:35.155Z,65
2022-12-29T11:32:47.572Z,65
2022-12-29T11:33:55.050Z,65
2022-12-29T11:35:02.119Z,65
2022-12-29T11:36:09.673Z,66
2022-12-29T11:37:19.727Z,66
2022-12-29T11:38:34.936Z,65
2022-12-29T11:39:43.031Z,65
2022-12-29T11:41:00.453Z,65
2022-12-29T11:42:09.023Z,64
2022-12-29T11:43:16.217Z,65
2022-12-29T11:44:29.520Z,65
2022-12-29T11:45:36.654Z,65
2022-12-29T11:46:43.684Z,65
2022-12-29T11:47:50.853Z,65
2022-12-29T11:48:57.993Z,65
2022-12-29T11:50:05.355Z,65
2022-12-29T11:51:12.877Z,65
2022-12-29T11:52:29.099Z,65
2022-12-29T11:53:37.082Z,65
2022-12-29T11:54:45.154Z,65
2022-12-29T11:55:52.424Z,66
2022-12-29T11:57:02.808Z,66
2022-12-29T11:58:16.257Z,66
2022-12-29T11:59:23.516Z,66
2022-12-29T12:00:34.588Z,66
2022-12-29T12:01:42.087Z,66
2022-12-29T12:02:49.673Z,66
2022-12-29T12:04:05.663Z,65
2022-12-29T12:05:12.732Z,66
2022-12-29T12:06:23.337Z,66
2022-12-29T12:07:30.522Z,66
2022-12-29T12:08:43.680Z,66
2022-12-29T12:09:53.865Z,66
2022-12-29T12:11:04.327Z,66
2022-12-29T12:12:14.283Z,66
2022-12-29T12:13:29.352Z,66
2022-12-29T12:14:36.233Z,66
2022-12-29T12:15:46.857Z,66
2022-12-29T12:16:54.565Z,66
2022-12-29T12:18:05.116Z,65
2022-12-29T12:19:22.480Z,66
2022-12-29T12:20:33.421Z,66
2022-12-29T12:21:45.289Z,66
2022-12-29T12:22:48.085Z,66
2022-12-29T12:24:03.396Z,66
2022-12-29T12:25:20.985Z,66
2022-12-29T12:26:28.935Z,66
2022-12-29T12:27:38.893Z,66
2022-12-29T12:28:45.941Z,66
2022-12-29T12:29:58.135Z,66
2022-12-29T12:31:15.864Z,66
2022-12-29T12:32:26.016Z,66
2022-12-29T12:33:44.220Z,66
2022-12-29T12:34:52.178Z,66
2022-12-29T12:35:59.349Z,66
2022-12-29T12:37:17.722Z,66
2022-12-29T12:38:35.252Z,66
2022-12-29T12:39:45.866Z,66
2022-12-29T12:41:01.188Z,66
2022-12-29T12:42:13.568Z,66
2022-12-29T12:43:25.805Z,67
2022-12-29T12:44:33.577Z,66
2022-12-29T12:45:47.363Z,66
2022-12-29T12:46:59.744Z,66
2022-12-29T12:48:17.002Z,67
2022-12-29T12:49:29.655Z,66
2022-12-29T12:50:46.972Z,67
2022-12-29T12:52:05.338Z,67
2022-12-29T12:53:21.570Z,67
2022-12-29T12:54:39.068Z,67
2022-12-29T12:55:54.307Z,67
2022-12-29T12:57:06.453Z,67
2022-12-29T12:58:24.289Z,67
2022-12-29T12:59:37.788Z,67
2022-12-29T13:00:50.091Z,67
2022-12-29T13:02:03.239Z,67
2022-12-29T13:03:21.457Z,67
2022-12-29T13:04:28.441Z,67
2022-12-29T13:05:43.477Z,67
2022-12-29T13:06:58.669Z,67
2022-12-29T13:08:16.200Z,67
2022-12-29T13:09:33.705Z,67
2022-12-29T13:10:52.935Z,67
2022-12-29T13:11:58.747Z,67
2022-12-29T13:13:11.046Z,67
2022-12-29T13:14:28.170Z,67
2022-12-29T13:15:45.522Z,67
2022-12-29T13:17:03.197Z,67
2022-12-29T13:18:13.838Z,67
2022-12-29T13:19:29.577Z,67
2022-12-29T13:20:42.149Z,67
2022-12-29T13:21:58.903Z,67
2022-12-29T13:23:06.977Z,67
2022-12-29T13:24:19.131Z,68
2022-12-29T13:25:31.247Z,67
2022-12-29T13:26:39.188Z,67
2022-12-29T13:27:48.726Z,68
2022-12-29T13:28:56.142Z,67
2022-12-29T13:30:08.882Z,67
2022-12-29T13:31:24.168Z,68
2022-12-29T13:32:41.508Z,67
2022-12-29T13:33:56.652Z,68
2022-12-29T13:35:14.854Z,68
2022-12-29T13:36:28.283Z,68
2022-12-29T13:37:39.528Z,68
2022-12-29T13:38:49.213Z,68
2022-12-29T13:39:56.341Z,68
2022-12-29T13:41:03.517Z,68
2022-12-29T13:42:10.545Z,68
2022-12-29T13:43:17.915Z,67
2022-12-29T13:44:24.857Z,68
2022-12-29T13:45:32.012Z,68
2022-12-29T13:46:39.166Z,67
2022-12-29T13:47:46.290Z,67
2022-12-29T13:49:01.668Z,68
2022-12-29T13:50:11.152Z,67
2022-12-29T13:51:20.271Z,67
2022-12-29T13:52:25.594Z,67
2022-12-29T13:53:40.795Z,67
2022-12-29T13:54:57.998Z,67
2022-12-29T13:56:04.896Z,67
2022-12-29T13:57:11.923Z,67
2022-12-29T13:58:24.075Z,67
2022-12-29T13:59:42.847Z,67
2022-12-29T14:00:55.840Z,67
2022-12-29T14:02:03.070Z,67
2022-12-29T14:03:18.128Z,67
2022-12-29T14:04:32.817Z,67
2022-12-29T14:05:40.163Z,67
2022-12-29T14:06:47.166Z,67
2022-12-29T14:08:04.673Z,67
2022-12-29T14:09:11.841Z,66
2022-12-29T14:10:29.223Z,67
2022-12-29T14:11:42.049Z,67
2022-12-29T14:12:49.218Z,67
2022-12-29T14:13:56.458Z,67
2022-12-29T14:15:03.687Z,67
2022-12-29T14:16:13.674Z,67
2022-12-29T14:17:31.357Z,67
2022-12-29T14:18:38.607Z,67
2022-12-29T14:19:45.708Z,66
2022-12-29T14:20:52.773Z,66
2022-12-29T14:22:03.524Z,67
2022-12-29T14:23:10.536Z,67
2022-12-29T14:24:17.833Z,67
2022-12-29T14:25:29.909Z,67
2022-12-29T14:26:47.208Z,67
2022-12-29T14:27:54.399Z,67
2022-12-29T14:29:04.984Z,67
2022-12-29T14:30:19.113Z,67
2022-12-29T14:31:36.563Z,67
2022-12-29T14:32:43.725Z,67
2022-12-29T14:34:01.129Z,67
2022-12-29T14:35:11.050Z,68
2022-12-29T14:36:28.446Z,68
2022-12-29T14:37:38.596Z,68
2022-12-29T14:38:45.895Z,69
2022-12-29T14:39:52.922Z,69
2022-12-29T14:41:13.012Z,69
2022-12-29T14:42:22.821Z,69
2022-12-29T14:43:29.907Z,69
2022-12-29T14:44:37.000Z,69
2022-12-29T14:45:54.313Z,69
2022-12-29T14:47:04.074Z,69
2022-12-29T14:48:11.111Z,69
2022-12-29T14:49:26.132Z,69
2022-12-29T14:50:33.337Z,69
2022-12-29T14:51:45.668Z,69
2022-12-29T14:52:56.732Z,70
2022-12-29T14:54:02.802Z,70
2022-12-29T14:55:20.271Z,70
2022-12-29T14:56:33.388Z,70
2022-12-29T14:57:40.601Z,70
2022-12-29T14:58:47.794Z,70
2022-12-29T15:00:00.266Z,70
2022-12-29T15:01:12.795Z,70
2022-12-29T15:02:23.435Z,70
2022-12-29T15:03:30.476Z,70
2022-12-29T15:04:38.556Z,69
2022-12-29T15:05:45.718Z,70
2022-12-29T15:06:55.572Z,69
2022-12-29T15:08:02.518Z,69
2022-12-29T15:09:09.682Z,70
2022-12-29T15:10:16.846Z,70
2022-12-29T15:11:24.064Z,70
2022-12-29T15:12:42.000Z,70
2022-12-29T15:13:54.421Z,71
2022-12-29T15:15:01.526Z,71
2022-12-29T15:16:19.048Z,71
2022-12-29T15:17:29.168Z,71
2022-12-29T15:18:36.089Z,71
2022-12-29T15:19:43.189Z,71
2022-12-29T15:20:50.291Z,71
2022-12-29T15:21:57.663Z,71
2022-12-29T15:23:04.547Z,71
2022-12-29T15:24:14.122Z,71
2022-12-29T15:25:21.413Z,71
2022-12-29T15:26:28.768Z,72
2022-12-29T15:27:41.117Z,72
2022-12-29T15:28:48.319Z,72
2022-12-29T15:29:55.476Z,72
2022-12-29T15:31:02.653Z,71
2022-12-29T15:32:09.662Z,71
2022-12-29T15:33:19.384Z,71
2022-12-29T15:34:26.568Z,72
2022-12-29T15:35:33.682Z,71
2022-12-29T15:36:40.692Z,71
2022-12-29T15:37:48.271Z,71
2022-12-29T15:38:55.422Z,71
2022-12-29T15:40:02.540Z,71
2022-12-29T15:41:10.785Z,71
2022-12-29T15:42:25.481Z,71
2022-12-29T15:43:46.862Z,72
2022-12-29T15:45:10.077Z,72
2022-12-29T15:46:07.211Z,72
2022-12-29T15:47:14.320Z,71
2022-12-29T15:48:21.401Z,71
2022-12-29T15:49:32.158Z,72
2022-12-29T15:50:35.748Z,71
2022-12-29T15:51:42.841Z,72
2022-12-29T15:52:50.844Z,72
2022-12-29T15:53:57.650Z,72
2022-12-29T15:55:04.800Z,72
2022-12-29T15:56:11.956Z,72
2022-12-29T15:57:19.033Z,73
2022-12-29T15:58:31.174Z,73
2022-12-29T15:59:38.345Z,73
2022-12-29T16:00:45.489Z,73
2022-12-29T16:01:53.655Z,72
2022-12-29T16:03:01.015Z,72
2022-12-29T16:04:07.912Z,72
2022-12-29T16:05:17.900Z,72
2022-12-29T16:06:22.081Z,73
2022-12-29T16:07:29.285Z,73
2022-12-29T16:08:37.191Z,73
2022-12-29T16:09:44.530Z,73
2022-12-29T16:10:51.518Z,73
2022-12-29T16:11:59.102Z,73
2022-12-29T16:13:08.954Z,72
2022-12-29T16:14:21.108Z,72
2022-12-29T16:15:38.494Z,73
2022-12-29T16:16:45.612Z,72
2022-12-29T16:17:52.668Z,73
2022-12-29T16:19:00.746Z,73
2022-12-29T16:20:18.996Z,73
2022-12-29T16:21:26.327Z,73
2022-12-29T16:22:34.032Z,73
2022-12-29T16:23:41.219Z,73
2022-12-29T16:24:48.377Z,73
2022-12-29T16:25:55.473Z,73
2022-12-29T16:27:02.441Z,73